Terminal Aerodrome Forecast
Issued by NWS Lubbock, TX

Home | Current Version | Previous Version | Text Only | Print | Product List | Glossary On
Versions: 1 2 3 4 5 6 7 8 9 10 11 12 13 14 15 16 17 18 19 20
798
FTUS44 KLUB 261122
TAFLBB
TAF
KLBB 261122Z 2612/2712 18016KT P6SM SCT200
     FM261500 22015G25KT P6SM SCT250
     FM270200 18011KT P6SM FEW200=

USA.gov is the U.S. government's official web portal to all federal, state and local government web resources and services.